LGSK Airport Information

Runway Information
Runway 01 Length 5341 ft width 98 ft
Elevation 9 ft Threshold 190 ft Heading 19
Runway 19 Length 5341 ft Width 98 ft
Elevation 54 ft Threshold ft Heading 199
Airport Frequencies
Type A/G Name SKIATHOS R Frequency 563.7 MHZ
Type APP Name SKIATHOS A Frequency 126.05 MHZ
Type TWR Name SKIATHOS T Frequency 126.05 MHZ
Airport Navaids
Type NDB Name Skiathos Frequency 326 KHZ
Airport Weather Information & NOTAM
ADDS - METARS form results

(2212 UTC 28 September 2022)
Data provider http://aviationweather.gov/metar/data/
 
Forecast for: LGSK (SKIATHOS ISLAND , GR)
Text: TAF LGSK 282000Z 2821/2906 26010KT 9999 FEW018
Forecast period: 2100 UTC 28 September 2022 to 0600 UTC 29 September 2022
Forecast type: FROM: standard forecast or significant change
Winds: from the W (260 degrees) at 12 MPH (10 knots; 5.1 m/s)
Visibility: 6 or more miles (10+ km)
Ceiling: at least 12,000 feet AGL
Clouds: few clouds at 1800 feet AGL
Weather: no significant weather forecast for this period